createdAt,value
2018-12-22T00:00:26.186Z,99877.75
2018-12-22T00:05:30.574Z,99877.31
2018-12-22T00:07:58.867Z,99887.22
2018-12-22T00:10:27.065Z,99883.50
2018-12-22T00:12:55.443Z,99891.66
2018-12-22T00:15:23.613Z,99876.36
2018-12-22T00:17:51.893Z,99889.36
2018-12-22T00:20:20.182Z,99887.71
2018-12-22T00:22:48.667Z,99884.02
2018-12-22T00:25:17.010Z,99890.29
2018-12-22T00:27:45.465Z,99900.30
2018-12-22T00:30:13.726Z,99902.48
2018-12-22T00:32:42.135Z,99900.00
2018-12-22T00:35:13.527Z,99898.59
2018-12-22T00:37:41.948Z,99904.09
2018-12-22T00:40:10.527Z,99901.66
2018-12-22T00:42:38.660Z,99909.54
2018-12-22T00:45:07.303Z,99899.97
2018-12-22T00:47:36.318Z,99907.72
2018-12-22T00:50:05.295Z,99904.59
2018-12-22T00:52:34.197Z,99904.44
2018-12-22T00:55:02.421Z,99910.88
2018-12-22T00:57:30.703Z,99913.11
2018-12-22T00:59:59.203Z,99905.78
2018-12-22T01:02:27.436Z,99902.63
2018-12-22T01:04:57.192Z,99909.29
2018-12-22T01:07:25.761Z,99910.25
2018-12-22T01:09:54.063Z,99914.20
2018-12-22T01:12:22.266Z,99925.13
2018-12-22T01:14:50.645Z,99922.77
2018-12-22T01:17:18.887Z,99923.79
2018-12-22T01:19:47.134Z,99918.46
2018-12-22T01:22:15.470Z,99919.53
2018-12-22T01:24:43.654Z,99925.17
2018-12-22T01:27:11.839Z,99928.09
2018-12-22T01:29:40.030Z,99933.98
2018-12-22T01:32:08.230Z,99947.67
2018-12-22T01:34:36.393Z,99941.81
2018-12-22T01:37:04.610Z,99952.72
2018-12-22T01:39:33.152Z,99957.77
2018-12-22T01:42:01.483Z,99945.11
2018-12-22T01:44:29.791Z,99940.59
2018-12-22T01:46:58.206Z,99949.33
2018-12-22T01:49:26.646Z,99948.30
2018-12-22T01:51:54.984Z,99949.45
2018-12-22T01:54:23.362Z,99958.10
2018-12-22T01:56:51.759Z,99960.67
2018-12-22T01:59:19.923Z,99953.08
2018-12-22T02:01:48.113Z,99945.05
2018-12-22T02:04:16.227Z,99930.85
2018-12-22T02:06:44.344Z,99933.96
2018-12-22T02:09:12.488Z,99926.95
2018-12-22T02:11:40.635Z,99922.95
2018-12-22T02:14:08.760Z,99928.34
2018-12-22T02:16:36.952Z,99932.92
2018-12-22T02:19:05.093Z,99929.95
2018-12-22T02:21:33.292Z,99927.95
2018-12-22T02:24:01.521Z,99939.50
2018-12-22T02:26:29.607Z,99932.52
2018-12-22T02:28:57.779Z,99935.59
2018-12-22T02:31:26.003Z,99934.98
2018-12-22T02:33:54.135Z,99942.72
2018-12-22T02:36:22.269Z,99947.02
2018-12-22T02:38:50.378Z,99949.36
2018-12-22T02:41:18.532Z,99944.44
2018-12-22T02:43:46.872Z,99949.06
2018-12-22T02:46:15.007Z,99938.47
2018-12-22T02:48:43.195Z,99938.36
2018-12-22T02:51:11.317Z,99949.14
2018-12-22T02:53:39.483Z,99944.95
2018-12-22T02:56:07.660Z,99942.67
2018-12-22T02:58:35.754Z,99945.85
2018-12-22T03:01:03.925Z,99944.61
2018-12-22T03:03:31.999Z,99947.78
2018-12-22T03:06:00.245Z,99944.38
2018-12-22T03:08:28.348Z,99946.67
2018-12-22T03:10:56.517Z,99941.04
2018-12-22T03:13:24.755Z,99939.37
2018-12-22T03:15:52.866Z,99938.26
2018-12-22T03:18:21.007Z,99933.01
2018-12-22T03:20:49.075Z,99929.22
2018-12-22T03:23:17.304Z,99927.78
2018-12-22T03:25:45.523Z,99925.61
2018-12-22T03:28:13.718Z,99923.04
2018-12-22T03:30:41.874Z,99930.07
2018-12-22T03:33:10.055Z,99923.89
2018-12-22T03:35:38.272Z,99918.22
2018-12-22T03:38:06.439Z,99927.80
2018-12-22T03:40:34.675Z,99923.10
2018-12-22T03:43:02.762Z,99929.68
2018-12-22T03:45:30.844Z,99922.34
2018-12-22T03:47:58.959Z,99928.02
2018-12-22T03:50:27.086Z,99926.84
2018-12-22T03:52:58.177Z,99926.00
2018-12-22T03:55:26.311Z,99919.02
2018-12-22T03:57:54.439Z,99925.37
2018-12-22T04:00:22.514Z,99909.09
2018-12-22T04:02:50.598Z,99914.55
2018-12-22T04:05:18.744Z,99913.00
2018-12-22T04:07:46.935Z,99914.83
2018-12-22T04:10:15.220Z,99925.05
2018-12-22T04:12:43.417Z,99924.42
2018-12-22T04:15:11.552Z,99911.66
2018-12-22T04:17:39.626Z,99905.30
2018-12-22T04:20:07.845Z,99906.31
2018-12-22T04:22:35.987Z,99902.79
2018-12-22T04:25:04.247Z,99901.16
2018-12-22T04:27:32.321Z,99904.34
2018-12-22T04:30:00.476Z,99903.62
2018-12-22T04:32:28.650Z,99900.44
2018-12-22T04:34:56.723Z,99910.19
2018-12-22T04:37:24.901Z,99912.36
2018-12-22T04:39:53.046Z,99920.68
2018-12-22T04:42:21.134Z,99917.09
2018-12-22T04:47:23.570Z,99905.14
2018-12-22T04:49:51.794Z,99900.17
2018-12-22T04:52:19.877Z,99899.12
2018-12-22T04:54:47.956Z,99902.14
2018-12-22T04:57:16.128Z,99907.51
2018-12-22T04:59:44.199Z,99904.62
2018-12-22T05:02:12.351Z,99900.84
2018-12-22T05:04:40.457Z,99900.72
2018-12-22T05:07:08.522Z,99899.21
2018-12-22T05:09:36.581Z,99897.98
2018-12-22T05:12:04.697Z,99891.84
2018-12-22T05:14:32.827Z,99887.95
2018-12-22T05:17:00.993Z,99902.06
2018-12-22T05:19:29.079Z,99893.64
2018-12-22T05:21:57.164Z,99899.21
2018-12-22T05:24:25.325Z,99906.41
2018-12-22T05:26:53.474Z,99893.01
2018-12-22T05:29:21.577Z,99888.67
2018-12-22T05:31:49.740Z,99890.31
2018-12-22T05:34:17.912Z,99894.57
2018-12-22T05:36:46.022Z,99896.52
2018-12-22T05:39:14.137Z,99902.77
2018-12-22T05:41:42.374Z,99909.88
2018-12-22T05:44:10.497Z,99916.28
2018-12-22T05:46:38.637Z,99908.45
2018-12-22T05:49:06.793Z,99913.12
2018-12-22T05:51:34.949Z,99920.33
2018-12-22T05:54:09.757Z,99913.83
2018-12-22T05:56:37.898Z,99923.98
2018-12-22T05:59:06.019Z,99917.96
2018-12-22T06:01:34.085Z,99910.17
2018-12-22T06:04:02.201Z,99918.34
2018-12-22T06:06:30.381Z,99916.72
2018-12-22T06:08:58.539Z,99903.70
2018-12-22T06:11:26.718Z,99910.37
2018-12-22T06:13:54.898Z,99907.69
2018-12-22T06:16:22.993Z,99917.17
2018-12-22T06:18:51.135Z,99911.58
2018-12-22T06:21:19.229Z,99921.31
2018-12-22T06:23:47.312Z,99907.05
2018-12-22T06:26:15.438Z,99910.33
2018-12-22T06:28:43.534Z,99908.48
2018-12-22T06:31:11.617Z,99912.05
2018-12-22T06:33:39.810Z,99917.50
2018-12-22T06:36:07.917Z,99927.14
2018-12-22T06:38:36.056Z,99932.60
2018-12-22T06:41:04.284Z,99936.36
2018-12-22T06:43:32.478Z,99932.16
2018-12-22T06:46:00.574Z,99933.91
2018-12-22T06:48:28.804Z,99946.13
2018-12-22T06:50:56.919Z,99953.66
2018-12-22T06:53:24.994Z,99950.41
2018-12-22T06:55:53.087Z,99949.41
2018-12-22T06:58:21.161Z,99944.74
2018-12-22T07:00:49.245Z,99942.48
2018-12-22T07:03:17.333Z,99946.69
2018-12-22T07:05:48.456Z,99958.70
2018-12-22T07:08:16.712Z,99951.84
2018-12-22T07:10:44.842Z,99959.91
2018-12-22T07:13:13.062Z,99947.06
2018-12-22T07:15:41.259Z,99975.87
2018-12-22T07:18:09.392Z,99959.84
2018-12-22T07:20:37.545Z,99979.95
2018-12-22T07:23:05.704Z,99975.54
2018-12-22T07:25:34.025Z,99985.81
2018-12-22T07:28:02.551Z,99990.45
2018-12-22T07:30:30.761Z,99991.23
2018-12-22T07:32:59.123Z,99995.48
2018-12-22T07:35:27.363Z,99999.48
2018-12-22T07:37:55.570Z,99995.98
2018-12-22T07:40:23.813Z,99990.16
2018-12-22T07:42:52.023Z,99997.98
2018-12-22T07:45:20.160Z,100000.44
2018-12-22T07:47:48.567Z,100016.34
2018-12-22T07:50:16.841Z,100027.95
2018-12-22T07:52:51.575Z,100014.58
2018-12-22T07:55:15.587Z,100005.73
2018-12-22T07:57:43.692Z,100030.55
2018-12-22T08:00:12.080Z,100039.84
2018-12-22T08:02:40.342Z,100036.01
2018-12-22T08:05:08.560Z,100034.92
2018-12-22T08:07:37.086Z,100042.74
2018-12-22T08:10:05.817Z,100061.94
2018-12-22T08:12:34.490Z,100063.21
2018-12-22T08:15:02.897Z,100071.32
2018-12-22T08:17:31.345Z,100070.94
2018-12-22T08:19:59.683Z,100082.34
2018-12-22T08:22:27.827Z,100073.75
2018-12-22T08:24:56.359Z,100090.12
2018-12-22T08:27:25.143Z,100091.86
2018-12-22T08:29:53.315Z,100097.95
2018-12-22T08:32:21.584Z,100094.77
2018-12-22T08:34:49.911Z,100098.30
2018-12-22T08:37:18.159Z,100098.30
2018-12-22T08:39:46.403Z,100109.03
2018-12-22T08:42:14.686Z,100112.89
2018-12-22T08:44:49.532Z,100117.33
2018-12-22T08:47:17.687Z,100123.23
2018-12-22T08:49:45.777Z,100129.32
2018-12-22T08:52:13.854Z,100158.38
2018-12-22T08:54:42.004Z,100141.47
2018-12-22T08:57:10.359Z,100151.08
2018-12-22T08:59:38.536Z,100165.61
2018-12-22T09:02:06.746Z,100173.86
2018-12-22T09:04:35.346Z,100182.73
2018-12-22T09:07:03.559Z,100179.94
2018-12-22T09:09:31.771Z,100184.47
2018-12-22T09:11:59.906Z,100185.81
2018-12-22T09:14:28.040Z,100182.30
2018-12-22T09:16:56.279Z,100195.70
2018-12-22T09:19:24.510Z,100199.32
2018-12-22T09:21:52.619Z,100215.58
2018-12-22T09:24:22.908Z,100216.52
2018-12-22T09:26:51.174Z,100209.49
2018-12-22T09:29:19.432Z,100234.68
2018-12-22T09:31:52.479Z,100244.28
2018-12-22T09:34:22.049Z,100243.95
2018-12-22T09:36:53.249Z,100243.23
2018-12-22T09:39:26.029Z,100299.20
2018-12-22T09:41:54.669Z,100324.39
2018-12-22T09:44:24.046Z,100313.20
2018-12-22T09:46:52.424Z,100346.34
2018-12-22T09:49:20.641Z,100347.82
2018-12-22T09:51:48.898Z,100332.44
2018-12-22T09:54:17.585Z,100348.66
2018-12-22T09:56:46.651Z,100353.87
2018-12-22T09:59:17.907Z,100345.59
2018-12-22T10:01:55.225Z,100361.70
2018-12-22T10:04:29.389Z,100357.19
2018-12-22T10:07:04.337Z,100369.37
2018-12-22T10:09:38.928Z,100371.81
2018-12-22T10:12:08.099Z,100367.97
2018-12-22T10:14:39.825Z,100379.89
2018-12-22T10:17:09.608Z,100380.02
2018-12-22T10:19:40.546Z,100376.16
2018-12-22T10:22:13.172Z,100374.35
2018-12-22T10:24:44.665Z,100378.06
2018-12-22T10:27:13.860Z,100386.14
2018-12-22T10:29:46.029Z,100354.98
2018-12-22T10:32:20.173Z,100375.19
2018-12-22T10:34:50.518Z,100379.26
2018-12-22T10:37:25.160Z,100373.45
2018-12-22T10:39:53.953Z,100382.06
2018-12-22T10:42:23.251Z,100376.98
2018-12-22T10:44:52.215Z,100380.73
2018-12-22T10:47:21.252Z,100383.90
2018-12-22T10:49:49.657Z,100377.72
2018-12-22T10:52:19.594Z,100379.89
2018-12-22T10:54:47.924Z,100375.95
2018-12-22T10:57:16.460Z,100372.80
2018-12-22T10:59:44.845Z,100367.22
2018-12-22T11:02:13.237Z,100367.70
2018-12-22T11:04:41.719Z,100365.31
2018-12-22T11:07:10.043Z,100370.83
2018-12-22T11:09:39.555Z,100366.52
2018-12-22T11:12:07.832Z,100363.80
2018-12-22T11:14:37.513Z,100368.11
2018-12-22T11:17:09.055Z,100362.79
2018-12-22T11:19:40.442Z,100369.22
2018-12-22T11:22:08.714Z,100368.98
2018-12-22T11:24:37.219Z,100370.50
2018-12-22T11:27:18.367Z,100373.61
2018-12-22T11:29:54.363Z,100368.81
2018-12-22T11:32:34.709Z,100366.14
2018-12-22T11:35:25.497Z,100362.72
2018-12-22T11:38:08.419Z,100363.17
2018-12-22T11:40:38.973Z,100368.09
2018-12-22T11:43:25.909Z,100379.14
2018-12-22T11:46:00.269Z,100372.25
2018-12-22T11:48:41.618Z,100386.68
2018-12-22T11:51:12.859Z,100390.08
2018-12-22T11:54:14.812Z,100387.08
2018-12-22T11:56:49.809Z,100402.16
2018-12-22T11:59:22.866Z,100400.49
2018-12-22T12:01:51.517Z,100415.55
2018-12-22T12:04:22.074Z,100418.85
2018-12-22T12:06:51.776Z,100414.44
2018-12-22T12:09:20.546Z,100417.52
2018-12-22T12:11:48.958Z,100414.41
2018-12-22T12:14:17.181Z,100426.48
2018-12-22T12:17:00.346Z,100415.97
2018-12-22T12:19:30.639Z,100421.55
2018-12-22T12:21:58.889Z,100425.36
2018-12-22T12:24:27.525Z,100427.64
2018-12-22T12:26:55.823Z,100424.52
2018-12-22T12:29:24.193Z,100424.52
2018-12-22T12:31:52.611Z,100430.94
2018-12-22T12:34:20.909Z,100435.07
2018-12-22T12:36:49.170Z,100438.66
2018-12-22T12:39:17.454Z,100439.80
2018-12-22T12:41:45.954Z,100445.98
2018-12-22T12:44:14.261Z,100442.16
2018-12-22T12:46:50.963Z,100440.52
2018-12-22T12:49:20.135Z,100450.42
2018-12-22T12:51:48.541Z,100454.16
2018-12-22T12:54:16.862Z,100459.52
2018-12-22T12:56:53.604Z,100459.45
2018-12-22T12:59:22.284Z,100465.19
2018-12-22T13:01:50.552Z,100468.09
2018-12-22T13:04:18.933Z,100469.97
2018-12-22T13:09:35.644Z,100476.54
2018-12-22T13:12:14.052Z,100475.92
2018-12-22T13:14:43.620Z,100486.36
2018-12-22T13:17:12.058Z,100482.13
2018-12-22T13:19:40.252Z,100485.86
2018-12-22T13:22:08.522Z,100494.31
2018-12-22T13:24:36.822Z,100501.86
2018-12-22T13:27:05.038Z,100501.75
2018-12-22T13:29:33.260Z,100513.28
2018-12-22T13:32:09.301Z,100512.59
2018-12-22T13:34:31.796Z,100520.02
2018-12-22T13:37:00.013Z,100526.91
2018-12-22T13:39:29.325Z,100540.44
2018-12-22T13:41:57.616Z,100540.24
2018-12-22T13:44:26.087Z,100535.28
2018-12-22T13:46:54.331Z,100538.37
2018-12-22T13:49:22.634Z,100541.03
2018-12-22T13:51:50.815Z,100542.08
2018-12-22T13:54:22.098Z,100542.92
2018-12-22T13:56:50.437Z,100536.32
2018-12-22T13:59:18.821Z,100540.02
2018-12-22T14:01:53.051Z,100541.54
2018-12-22T14:04:21.357Z,100544.65
2018-12-22T14:06:49.536Z,100546.08
2018-12-22T14:09:17.720Z,100550.38
2018-12-22T14:11:46.014Z,100556.72
2018-12-22T14:14:22.234Z,100551.72
2018-12-22T14:19:00.365Z,100562.66
2018-12-22T14:21:29.089Z,100571.20
2018-12-22T14:24:09.341Z,100564.25
2018-12-22T14:26:37.685Z,100577.62
2018-12-22T14:29:05.887Z,100588.14
2018-12-22T14:31:34.168Z,100580.57
2018-12-22T14:34:07.195Z,100591.62
2018-12-22T14:36:35.583Z,100589.50
2018-12-22T14:39:04.514Z,100589.53
2018-12-22T14:41:32.747Z,100594.27
2018-12-22T14:44:01.097Z,100594.44
2018-12-22T14:46:29.281Z,100597.98
2018-12-22T14:49:01.117Z,100598.61
2018-12-22T14:51:31.358Z,100608.33
2018-12-22T14:54:12.252Z,100609.72
2018-12-22T14:56:43.934Z,100619.50
2018-12-22T14:59:20.046Z,100619.03
2018-12-22T15:01:52.402Z,100629.77
2018-12-22T15:04:20.821Z,100636.59
2018-12-22T15:06:48.959Z,100636.19
2018-12-22T15:09:17.028Z,100636.66
2018-12-22T15:11:45.189Z,100632.77
2018-12-22T15:14:13.401Z,100639.78
2018-12-22T15:16:41.531Z,100639.08
2018-12-22T15:19:09.696Z,100642.36
2018-12-22T15:21:37.909Z,100653.77
2018-12-22T15:24:07.667Z,100655.28
2018-12-22T15:26:35.913Z,100656.25
2018-12-22T15:29:04.239Z,100662.10
2018-12-22T15:31:32.445Z,100668.16
2018-12-22T15:34:00.791Z,100672.57
2018-12-22T15:36:29.066Z,100679.56
2018-12-22T15:39:00.370Z,100676.77
2018-12-22T15:41:31.033Z,100677.15
2018-12-22T15:43:59.347Z,100678.45
2018-12-22T15:46:31.250Z,100683.03
2018-12-22T15:49:09.471Z,100678.67
2018-12-22T15:51:52.748Z,100685.84
2018-12-22T15:54:25.473Z,100688.83
2018-12-22T15:56:53.942Z,100693.84
2018-12-22T15:59:22.176Z,100700.48
2018-12-22T16:01:50.297Z,100701.12
2018-12-22T16:04:18.374Z,100710.14
2018-12-22T16:06:46.524Z,100710.64
2018-12-22T16:09:14.612Z,100715.41
2018-12-22T16:11:42.754Z,100710.84
2018-12-22T16:14:10.912Z,100711.50
2018-12-22T16:16:40.030Z,100714.18
2018-12-22T16:19:08.245Z,100716.69
2018-12-22T16:21:36.417Z,100713.83
2018-12-22T16:24:04.666Z,100713.12
2018-12-22T16:29:23.871Z,100720.59
2018-12-22T16:31:58.473Z,100722.53
2018-12-22T16:35:29.241Z,100720.75
2018-12-22T16:38:13.494Z,100735.28
2018-12-22T16:40:48.486Z,100738.02
2018-12-22T16:43:21.048Z,100736.42
2018-12-22T16:46:00.685Z,100743.14
2018-12-22T16:48:30.253Z,100742.50
2018-12-22T16:51:07.560Z,100739.45
2018-12-22T16:53:35.824Z,100746.24
2018-12-22T16:59:21.281Z,100753.11
2018-12-22T17:03:49.407Z,100751.59
2018-12-22T17:06:17.892Z,100761.66
2018-12-22T17:08:47.710Z,100764.37
2018-12-22T17:11:16.278Z,100755.79
2018-12-22T17:13:46.456Z,100754.60
2018-12-22T17:16:15.484Z,100763.14
2018-12-22T17:18:43.831Z,100765.14
2018-12-22T17:21:40.867Z,100756.42
2018-12-22T17:24:16.076Z,100766.61
2018-12-22T17:26:45.569Z,100771.20
2018-12-22T17:29:13.836Z,100779.34
2018-12-22T17:31:43.101Z,100778.55
2018-12-22T17:34:11.512Z,100767.80
2018-12-22T17:36:39.903Z,100773.94
2018-12-22T17:39:10.572Z,100778.59
2018-12-22T17:41:39.253Z,100778.97
2018-12-22T17:44:07.537Z,100789.62
2018-12-22T17:46:35.854Z,100793.16
2018-12-22T17:49:04.898Z,100795.05
2018-12-22T17:51:35.270Z,100808.34
2018-12-22T17:54:03.514Z,100803.31
2018-12-22T17:56:31.839Z,100805.17
2018-12-22T17:59:00.104Z,100808.22
2018-12-22T18:01:28.360Z,100813.77
2018-12-22T18:03:56.652Z,100819.89
2018-12-22T18:06:24.868Z,100830.05
2018-12-22T18:08:53.115Z,100839.98
2018-12-22T18:11:21.381Z,100840.14
2018-12-22T18:13:49.650Z,100841.59
2018-12-22T18:16:18.032Z,100849.61
2018-12-22T18:18:46.418Z,100845.11
2018-12-22T18:21:14.699Z,100849.61
2018-12-22T18:23:43.113Z,100853.13
2018-12-22T18:26:11.541Z,100849.92
2018-12-22T18:28:39.828Z,100858.55
2018-12-22T18:31:08.133Z,100868.06
2018-12-22T18:33:36.441Z,100861.47
2018-12-22T18:36:05.443Z,100869.95
2018-12-22T18:38:33.766Z,100872.73
2018-12-22T18:41:02.379Z,100872.61
2018-12-22T18:43:30.679Z,100875.48
2018-12-22T18:45:58.996Z,100873.93
2018-12-22T18:48:28.327Z,100873.12
2018-12-22T18:50:56.546Z,100879.59
2018-12-22T18:53:24.930Z,100885.02
2018-12-22T18:56:03.034Z,100876.66
2018-12-22T18:58:31.216Z,100883.38
2018-12-22T19:00:59.437Z,100882.72
2018-12-22T19:03:31.007Z,100878.59
2018-12-22T19:06:02.591Z,100883.53
2018-12-22T19:08:35.760Z,100878.48
2018-12-22T19:11:15.484Z,100888.65
2018-12-22T19:13:44.319Z,100885.48
2018-12-22T19:16:16.801Z,100892.19
2018-12-22T19:18:46.317Z,100892.94
2018-12-22T19:21:16.821Z,100898.72
2018-12-22T19:23:51.446Z,100901.95
2018-12-22T19:26:28.977Z,100903.78
2018-12-22T19:29:04.856Z,100907.32
2018-12-22T19:31:41.945Z,100916.05
2018-12-22T19:34:30.349Z,100904.50
2018-12-22T19:37:04.761Z,100913.88
2018-12-22T19:39:45.751Z,100907.43
2018-12-22T19:42:21.148Z,100908.97
2018-12-22T19:45:01.403Z,100908.05
2018-12-22T19:47:42.854Z,100912.21
2018-12-22T19:50:41.929Z,100923.95
2018-12-22T19:53:13.649Z,100921.28
2018-12-22T19:55:45.305Z,100925.84
2018-12-22T19:58:18.202Z,100932.05
2018-12-22T20:01:30.251Z,100936.70
2018-12-22T20:04:08.997Z,100947.73
2018-12-22T20:06:48.667Z,100952.19
2018-12-22T20:09:32.341Z,100953.69
2018-12-22T20:12:13.039Z,100953.11
2018-12-22T20:14:46.522Z,100958.80
2018-12-22T20:17:25.331Z,100960.80
2018-12-22T20:20:05.177Z,100965.16
2018-12-22T20:22:40.323Z,100975.81
2018-12-22T20:25:19.818Z,100970.23
2018-12-22T20:27:54.792Z,100976.59
2018-12-22T20:33:51.156Z,100971.87
2018-12-22T20:36:33.095Z,100971.84
2018-12-22T20:39:09.006Z,100975.02
2018-12-22T20:41:52.497Z,100977.54
2018-12-22T20:44:29.442Z,100982.50
2018-12-22T20:50:19.117Z,100980.23
2018-12-22T20:55:11.813Z,100977.70
2018-12-22T20:57:41.936Z,100983.05
2018-12-22T21:00:12.720Z,100978.31
2018-12-22T21:02:43.999Z,100986.17
2018-12-22T21:05:14.242Z,100990.17
2018-12-22T21:07:46.751Z,100996.35
2018-12-22T21:10:16.277Z,101003.69
2018-12-22T21:12:47.997Z,101005.53
2018-12-22T21:15:19.856Z,101003.16
2018-12-22T21:17:50.425Z,101011.67
2018-12-22T21:20:22.531Z,101016.02
2018-12-22T21:22:54.604Z,101013.51
2018-12-22T21:25:29.402Z,101023.67
2018-12-22T21:28:24.043Z,101026.84
2018-12-22T21:30:53.773Z,101028.97
2018-12-22T21:33:27.781Z,101036.98
2018-12-22T21:35:58.151Z,101030.20
2018-12-22T21:38:31.115Z,101034.70
2018-12-22T21:41:10.493Z,101037.00
2018-12-22T21:43:44.307Z,101044.84
2018-12-22T21:46:18.935Z,101044.97
2018-12-22T21:51:38.857Z,101051.88
2018-12-22T21:54:16.441Z,101050.84
2018-12-22T21:56:48.113Z,101053.83
2018-12-22T21:59:19.579Z,101053.38
2018-12-22T22:01:58.172Z,101066.40
2018-12-22T22:04:41.794Z,101069.09
2018-12-22T22:07:16.825Z,101069.89
2018-12-22T22:09:49.999Z,101071.09
2018-12-22T22:12:26.381Z,101076.30
2018-12-22T22:14:56.405Z,101082.65
2018-12-22T22:17:28.361Z,101079.94
2018-12-22T22:20:01.187Z,101080.63
2018-12-22T22:22:41.322Z,101089.97
2018-12-22T22:25:15.656Z,101090.64
2018-12-22T22:27:45.653Z,101088.65
2018-12-22T22:30:16.266Z,101087.00
2018-12-22T22:32:55.685Z,101082.71
2018-12-22T22:35:40.101Z,101089.55
2018-12-22T22:38:16.386Z,101093.41
2018-12-22T22:40:51.122Z,101108.78
2018-12-22T22:43:25.173Z,101101.61
2018-12-22T22:45:59.389Z,101103.97
2018-12-22T22:48:37.475Z,101109.31
2018-12-22T22:51:10.261Z,101103.62
2018-12-22T22:53:41.116Z,101116.83
2018-12-22T22:56:10.639Z,101114.46
2018-12-22T22:58:42.772Z,101112.81
2018-12-22T23:01:14.816Z,101119.98
2018-12-22T23:03:49.751Z,101129.16
2018-12-22T23:06:32.562Z,101129.80
2018-12-22T23:09:04.396Z,101131.98
2018-12-22T23:11:36.526Z,101127.81
2018-12-22T23:14:11.091Z,101132.97
2018-12-22T23:16:47.170Z,101135.64
2018-12-22T23:19:18.951Z,101140.66
2018-12-22T23:21:51.490Z,101145.83
2018-12-22T23:24:24.023Z,101148.01
2018-12-22T23:26:55.090Z,101153.84
2018-12-22T23:29:27.123Z,101158.69
2018-12-22T23:32:07.320Z,101155.67
2018-12-22T23:34:37.343Z,101155.18
2018-12-22T23:37:08.039Z,101161.36
2018-12-22T23:42:41.138Z,101163.53
2018-12-22T23:45:11.878Z,101163.53
2018-12-22T23:47:43.597Z,101161.36
2018-12-22T23:50:32.611Z,101151.52
2018-12-22T23:53:18.436Z,101143.34
2018-12-22T23:55:56.952Z,101157.00
2018-12-22T23:58:35.923Z,101148.33
